createdAt,value
2016-06-15T00:00:55.612Z,0
2016-06-15T00:01:55.663Z,0
2016-06-15T00:02:55.791Z,0
2016-06-15T00:03:55.763Z,0
2016-06-15T00:04:56.750Z,0
2016-06-15T00:05:55.815Z,0
2016-06-15T00:06:55.881Z,0
2016-06-15T00:07:55.884Z,0
2016-06-15T00:08:55.996Z,0
2016-06-15T00:09:56.031Z,0
2016-06-15T00:10:56.050Z,0
2016-06-15T00:11:55.927Z,0
2016-06-15T00:12:56.197Z,0
2016-06-15T00:13:56.214Z,0
2016-06-15T00:14:56.015Z,0
2016-06-15T00:15:56.253Z,0
2016-06-15T00:16:56.271Z,0
2016-06-15T00:17:56.337Z,0
2016-06-15T00:18:56.340Z,0
2016-06-15T00:19:56.874Z,0
2016-06-15T00:20:56.471Z,0
2016-06-15T00:21:56.475Z,0
2016-06-15T00:22:56.539Z,0
2016-06-15T00:23:56.575Z,0
2016-06-15T00:24:56.623Z,0
2016-06-15T00:25:56.659Z,0
2016-06-15T00:26:56.770Z,0
2016-06-15T00:27:56.743Z,0
2016-06-15T00:28:56.760Z,0
2016-06-15T00:29:56.780Z,0
2016-06-15T00:30:56.907Z,0
2016-06-15T00:31:56.927Z,0
2016-06-15T00:32:56.930Z,0
2016-06-15T00:33:57.011Z,0
2016-06-15T00:34:58.186Z,0
2016-06-15T00:35:56.954Z,0
2016-06-15T00:36:57.068Z,0
2016-06-15T00:37:57.163Z,0
2016-06-15T00:38:57.245Z,0
2016-06-15T00:39:57.202Z,0
2016-06-15T00:40:57.236Z,0
2016-06-15T00:41:57.316Z,0
2016-06-15T00:42:57.383Z,0
2016-06-15T00:43:57.386Z,0
2016-06-15T00:44:57.435Z,0
2016-06-15T00:45:57.517Z,0
2016-06-15T00:46:57.410Z,0
2016-06-15T00:47:57.523Z,0
2016-06-15T00:48:57.432Z,0
2016-06-15T00:49:58.216Z,0
2016-06-15T00:50:57.703Z,0
2016-06-15T00:51:57.536Z,0
2016-06-15T00:52:57.788Z,0
2016-06-15T00:53:57.776Z,0
2016-06-15T00:54:57.841Z,0
2016-06-15T00:55:57.907Z,0
2016-06-15T00:56:57.941Z,0
2016-06-15T00:57:57.929Z,0
2016-06-15T00:58:57.994Z,0
2016-06-15T00:59:58.127Z,0
2016-06-15T01:00:58.229Z,0
2016-06-15T01:01:58.252Z,0
2016-06-15T01:02:58.338Z,0
2016-06-15T01:03:58.437Z,0
2016-06-15T01:04:58.469Z,0
2016-06-15T01:05:58.907Z,0
2016-06-15T01:06:58.548Z,0
2016-06-15T01:07:58.423Z,0
2016-06-15T01:08:58.651Z,0
2016-06-15T01:09:58.676Z,0
2016-06-15T01:10:58.745Z,0
2016-06-15T01:11:58.832Z,0
2016-06-15T01:12:58.824Z,0
2016-06-15T01:13:58.845Z,0
2016-06-15T01:14:58.927Z,0
2016-06-15T01:15:58.979Z,0
2016-06-15T01:16:59.000Z,0
2016-06-15T01:17:58.879Z,0
2016-06-15T01:18:59.228Z,0
2016-06-15T01:19:59.371Z,0
2016-06-15T01:20:59.047Z,0
2016-06-15T01:21:59.051Z,0
2016-06-15T01:22:59.274Z,0
2016-06-15T01:23:59.308Z,0
2016-06-15T01:24:59.311Z,0
2016-06-15T01:25:59.439Z,0
2016-06-15T01:26:59.489Z,0
2016-06-15T01:27:59.446Z,0
2016-06-15T01:28:59.526Z,0
2016-06-15T01:29:59.577Z,0
2016-06-15T01:30:59.595Z,0
2016-06-15T01:31:59.583Z,0
2016-06-15T01:32:59.679Z,0
2016-06-15T01:33:59.761Z,0
2016-06-15T01:34:59.826Z,0
2016-06-15T01:35:59.486Z,0
2016-06-15T01:36:59.832Z,0
2016-06-15T01:37:59.882Z,0
2016-06-15T01:38:59.885Z,0
2016-06-15T01:39:59.951Z,0
2016-06-15T01:41:00.016Z,0
2016-06-15T01:42:00.035Z,0
2016-06-15T01:42:59.897Z,0
2016-06-15T01:44:00.104Z,0
2016-06-15T01:45:00.170Z,0
2016-06-15T01:46:00.188Z,0
2016-06-15T01:47:00.253Z,0
2016-06-15T01:48:00.303Z,0
2016-06-15T01:49:00.354Z,0
2016-06-15T01:50:00.435Z,0
2016-06-15T01:51:00.391Z,0
2016-06-15T01:52:00.441Z,0
2016-06-15T01:53:00.491Z,0
2016-06-15T01:54:00.494Z,0
2016-06-15T01:55:00.544Z,0
2016-06-15T01:56:00.609Z,0
2016-06-15T01:57:00.659Z,0
2016-06-15T01:58:00.647Z,0
2016-06-15T01:59:00.728Z,0
2016-06-15T02:00:00.779Z,0
2016-06-15T02:01:00.797Z,0
2016-06-15T02:02:00.816Z,0
2016-06-15T02:03:00.959Z,0
2016-06-15T02:04:00.978Z,0
2016-06-15T02:05:00.809Z,0
2016-06-15T02:06:01.047Z,0
2016-06-15T02:07:01.081Z,0
2016-06-15T02:08:01.084Z,0
2016-06-15T02:09:01.102Z,0
2016-06-15T02:10:01.184Z,0
2016-06-15T02:11:01.218Z,0
2016-06-15T02:12:01.237Z,0
2016-06-15T02:13:01.256Z,0
2016-06-15T02:14:01.337Z,0
2016-06-15T02:15:01.200Z,0
2016-06-15T02:16:01.390Z,0
2016-06-15T02:17:01.440Z,0
2016-06-15T02:18:01.505Z,0
2016-06-15T02:19:01.524Z,0
2016-06-15T02:20:01.558Z,0
2016-06-15T02:21:01.499Z,0
2016-06-15T02:22:01.658Z,0
2016-06-15T02:23:01.693Z,0
2016-06-15T02:24:01.711Z,0
2016-06-15T02:25:03.731Z,0
2016-06-15T02:26:01.873Z,0
2016-06-15T02:27:01.845Z,0
2016-06-15T02:28:01.895Z,0
2016-06-15T02:29:02.008Z,0
2016-06-15T02:30:02.010Z,0
2016-06-15T02:31:01.983Z,0
2016-06-15T02:32:02.079Z,0
2016-06-15T02:33:02.083Z,0
2016-06-15T02:34:02.117Z,0
2016-06-15T02:35:02.167Z,0
2016-06-15T02:36:02.623Z,0
2016-06-15T02:37:02.329Z,0
2016-06-15T02:38:02.316Z,0
2016-06-15T02:39:02.366Z,0
2016-06-15T02:40:02.385Z,0
2016-06-15T02:41:02.450Z,0
2016-06-15T02:42:02.454Z,0
2016-06-15T02:43:02.488Z,0
2016-06-15T02:44:02.554Z,0
2016-06-15T02:45:02.588Z,0
2016-06-15T02:46:02.591Z,0
2016-06-15T02:47:02.688Z,0
2016-06-15T02:48:02.551Z,0
2016-06-15T02:49:02.741Z,0
2016-06-15T02:50:02.775Z,0
2016-06-15T02:51:02.904Z,0
2016-06-15T02:52:02.906Z,0
2016-06-15T02:53:03.020Z,0
2016-06-15T02:54:02.944Z,0
2016-06-15T02:55:02.963Z,0
2016-06-15T02:56:03.044Z,0
2016-06-15T02:57:02.954Z,0
2016-06-15T02:58:03.159Z,0
2016-06-15T02:59:03.053Z,0
2016-06-15T03:00:03.180Z,0
2016-06-15T03:01:03.216Z,0
2016-06-15T03:02:03.328Z,0
2016-06-15T03:03:03.301Z,0
2016-06-15T03:04:03.350Z,0
2016-06-15T03:05:03.415Z,0
2016-06-15T03:06:05.168Z,0
2016-06-15T03:07:03.453Z,0
2016-06-15T03:08:03.503Z,0
2016-06-15T03:09:03.584Z,0
2016-06-15T03:10:03.619Z,0
2016-06-15T03:11:03.605Z,0
2016-06-15T03:12:03.515Z,0
2016-06-15T03:13:03.753Z,0
2016-06-15T03:14:03.756Z,0
2016-06-15T03:15:03.774Z,0
2016-06-15T03:16:03.855Z,0
2016-06-15T03:17:03.905Z,0
2016-06-15T03:18:03.894Z,0
2016-06-15T03:19:03.942Z,0
2016-06-15T03:20:04.055Z,0
2016-06-15T03:21:04.511Z,0
2016-06-15T03:22:04.076Z,0
2016-06-15T03:23:04.126Z,0
2016-06-15T03:24:04.162Z,0
2016-06-15T03:25:04.179Z,0
2016-06-15T03:26:04.230Z,0
2016-06-15T03:27:04.311Z,0
2016-06-15T03:28:04.361Z,0
2016-06-15T03:29:04.333Z,0
2016-06-15T03:30:04.414Z,0
2016-06-15T03:31:04.479Z,0
2016-06-15T03:32:04.514Z,0
2016-06-15T03:33:04.517Z,0
2016-06-15T03:34:04.567Z,0
2016-06-15T03:35:04.649Z,0
2016-06-15T03:36:04.401Z,0
2016-06-15T03:37:04.670Z,0
2016-06-15T03:38:04.814Z,0
2016-06-15T03:39:04.817Z,0
2016-06-15T03:40:04.711Z,0
2016-06-15T03:41:04.854Z,0
2016-06-15T03:42:04.951Z,0
2016-06-15T03:43:04.923Z,0
2016-06-15T03:44:04.973Z,0
2016-06-15T03:45:04.866Z,0
2016-06-15T03:46:05.089Z,0
2016-06-15T03:47:05.091Z,0
2016-06-15T03:48:05.157Z,0
2016-06-15T03:49:05.191Z,0
2016-06-15T03:50:05.226Z,0
2016-06-15T03:51:04.994Z,0
2016-06-15T03:52:05.357Z,0
2016-06-15T03:53:05.406Z,0
2016-06-15T03:54:05.379Z,0
2016-06-15T03:55:05.396Z,0
2016-06-15T03:56:05.494Z,0
2016-06-15T03:57:05.497Z,0
2016-06-15T03:58:05.531Z,0
2016-06-15T03:59:05.613Z,0
2016-06-15T04:00:05.631Z,0
2016-06-15T04:01:05.650Z,0
2016-06-15T04:02:05.732Z,0
2016-06-15T04:03:05.781Z,0
2016-06-15T04:04:05.816Z,0
2016-06-15T04:05:05.802Z,0
2016-06-15T04:06:05.697Z,0
2016-06-15T04:07:05.965Z,0
2016-06-15T04:08:05.922Z,0
2016-06-15T04:09:05.971Z,0
2016-06-15T04:10:06.115Z,0
2016-06-15T04:11:06.134Z,0
2016-06-15T04:12:06.090Z,0
2016-06-15T04:13:07.108Z,0
2016-06-15T04:14:06.190Z,0
2016-06-15T04:15:06.208Z,0
2016-06-15T04:16:06.243Z,0
2016-06-15T04:17:06.339Z,0
2016-06-15T04:18:07.468Z,0
2016-06-15T04:19:06.393Z,0
2016-06-15T04:20:06.412Z,0
2016-06-15T04:21:06.524Z,0
2016-06-15T04:22:06.527Z,0
2016-06-15T04:23:06.593Z,0
2016-06-15T04:24:07.377Z,0
2016-06-15T04:25:06.693Z,0
2016-06-15T04:26:06.539Z,0
2016-06-15T04:27:05.996Z,0
2016-06-15T04:28:08.936Z,0
2016-06-15T04:29:06.908Z,0
2016-06-15T04:30:06.818Z,0
2016-06-15T04:31:06.899Z,0
2016-06-15T04:32:07.480Z,0
2016-06-15T04:33:07.811Z,0
2016-06-15T04:34:06.970Z,0
2016-06-15T04:35:07.833Z,0
2016-06-15T04:36:08.117Z,0
2016-06-15T04:37:07.917Z,0
2016-06-15T04:38:07.451Z,0
2016-06-15T04:39:07.204Z,0
2016-06-15T04:40:07.223Z,0
2016-06-15T04:41:07.102Z,0
2016-06-15T04:42:07.197Z,0
2016-06-15T04:43:07.372Z,0
2016-06-15T04:44:07.407Z,0
2016-06-15T04:45:07.488Z,0
2016-06-15T04:46:07.491Z,0
2016-06-15T04:47:07.510Z,0
2016-06-15T04:48:07.544Z,0
2016-06-15T04:49:07.688Z,0
2016-06-15T04:50:07.738Z,0
2016-06-15T04:51:08.366Z,0
2016-06-15T04:52:07.713Z,0
2016-06-15T04:53:07.778Z,0
2016-06-15T04:54:07.828Z,0
2016-06-15T04:55:07.831Z,0
2016-06-15T04:56:07.928Z,0
2016-06-15T04:57:07.978Z,0
2016-06-15T04:58:07.951Z,0
2016-06-15T04:59:08.031Z,0
2016-06-15T05:00:08.082Z,0
2016-06-15T05:01:08.162Z,0
2016-06-15T05:02:08.916Z,0
2016-06-15T05:03:08.278Z,0
2016-06-15T05:04:08.312Z,0
2016-06-15T05:05:08.300Z,0
2016-06-15T05:06:09.443Z,0
2016-06-15T05:07:08.212Z,0
2016-06-15T05:08:08.434Z,0
2016-06-15T05:09:08.422Z,0
2016-06-15T05:10:08.455Z,0
2016-06-15T05:11:08.537Z,0
2016-06-15T05:12:08.602Z,0
2016-06-15T05:13:08.590Z,0
2016-06-15T05:14:08.609Z,0
2016-06-15T05:15:08.721Z,0
2016-06-15T05:16:08.740Z,0
2016-06-15T05:17:08.727Z,0
2016-06-15T05:18:08.871Z,0
2016-06-15T05:19:08.921Z,0
2016-06-15T05:20:08.894Z,0
2016-06-15T05:21:09.677Z,0
2016-06-15T05:22:08.962Z,0
2016-06-15T05:23:09.245Z,0
2016-06-15T05:24:09.046Z,0
2016-06-15T05:25:09.111Z,0
2016-06-15T05:26:09.146Z,0
2016-06-15T05:27:09.195Z,0
2016-06-15T05:28:09.183Z,0
2016-06-15T05:29:09.311Z,0
2016-06-15T05:30:10.127Z,0
2016-06-15T05:31:09.348Z,0
2016-06-15T05:32:09.398Z,0
2016-06-15T05:33:09.433Z,0
2016-06-15T05:34:09.311Z,0
2016-06-15T05:35:09.485Z,0
2016-06-15T05:36:10.146Z,0
2016-06-15T05:37:09.741Z,0
2016-06-15T05:38:09.619Z,0
2016-06-15T05:39:09.669Z,0
2016-06-15T05:40:09.672Z,0
2016-06-15T05:41:09.863Z,0
2016-06-15T05:42:09.804Z,0
2016-06-15T05:43:09.807Z,0
2016-06-15T05:44:09.747Z,0
2016-06-15T05:45:09.970Z,0
2016-06-15T05:46:10.176Z,0
2016-06-15T05:47:10.039Z,0
2016-06-15T05:48:10.104Z,0
2016-06-15T05:49:10.108Z,0
2016-06-15T05:50:10.188Z,0
2016-06-15T05:51:10.816Z,0
2016-06-15T05:52:10.194Z,0
2016-06-15T05:53:10.104Z,0
2016-06-15T05:54:10.168Z,0
2016-06-15T05:55:10.329Z,0
2016-06-15T05:56:10.424Z,0
2016-06-15T05:57:12.135Z,0
2016-06-15T05:58:10.713Z,0
2016-06-15T05:59:10.356Z,0
2016-06-15T06:00:11.047Z,0
2016-06-15T06:01:10.815Z,0
2016-06-15T06:02:10.631Z,0
2016-06-15T06:03:11.541Z,0
2016-06-15T06:04:10.824Z,0
2016-06-15T06:05:10.594Z,0
2016-06-15T06:06:11.221Z,0
2016-06-15T06:07:11.599Z,0
2016-06-15T06:08:10.900Z,0
2016-06-15T06:09:10.903Z,0
2016-06-15T06:10:10.921Z,0
2016-06-15T06:11:12.143Z,0
2016-06-15T06:12:11.115Z,0
2016-06-15T06:13:11.352Z,0
2016-06-15T06:14:11.310Z,0
2016-06-15T06:15:11.171Z,0
2016-06-15T06:16:12.019Z,0
2016-06-15T06:17:13.322Z,0
2016-06-15T06:18:13.277Z,0
2016-06-15T06:19:11.417Z,0
2016-06-15T06:20:11.406Z,0
2016-06-15T06:21:11.752Z,0
2016-06-15T06:22:12.459Z,0
2016-06-15T06:23:11.852Z,0
2016-06-15T06:24:12.605Z,0
2016-06-15T06:25:11.843Z,0
2016-06-15T06:26:12.267Z,0
2016-06-15T06:27:11.645Z,0
2016-06-15T06:28:12.367Z,0
2016-06-15T06:29:12.730Z,0
2016-06-15T06:30:13.642Z,0
2016-06-15T06:31:15.146Z,0
2016-06-15T06:32:12.661Z,0
2016-06-15T06:33:12.554Z,0
2016-06-15T06:34:12.386Z,0
2016-06-15T06:35:12.561Z,0
2016-06-15T06:36:13.145Z,0
2016-06-15T06:37:13.272Z,0
2016-06-15T06:38:12.194Z,0
2016-06-15T06:39:12.667Z,0
2016-06-15T06:40:12.842Z,0
2016-06-15T06:41:12.235Z,0
2016-06-15T06:42:12.316Z,0
2016-06-15T06:43:12.319Z,0
2016-06-15T06:44:12.432Z,0
2016-06-15T06:45:13.408Z,0
2016-06-15T06:46:13.126Z,0
2016-06-15T06:47:13.113Z,0
2016-06-15T06:48:12.570Z,0
2016-06-15T06:49:14.060Z,0
2016-06-15T06:50:13.201Z,0
2016-06-15T06:51:13.988Z,0
2016-06-15T06:52:13.991Z,0
2016-06-15T06:53:12.772Z,0
2016-06-15T06:54:16.919Z,0
2016-06-15T06:55:13.767Z,0
2016-06-15T06:56:14.175Z,0
2016-06-15T06:57:12.878Z,0
2016-06-15T06:58:13.101Z,0
2016-06-15T06:59:12.947Z,0
2016-06-15T07:00:15.563Z,0
2016-06-15T07:01:13.141Z,0
2016-06-15T07:02:13.050Z,0
2016-06-15T07:03:13.100Z,0
2016-06-15T07:04:13.650Z,0
2016-06-15T07:05:13.544Z,0
2016-06-15T07:06:15.112Z,0
2016-06-15T07:07:13.581Z,0
2016-06-15T07:08:13.334Z,0
2016-06-15T07:09:13.462Z,0
2016-06-15T07:10:15.155Z,0
2016-06-15T07:11:15.488Z,0
2016-06-15T07:12:15.286Z,0
2016-06-15T07:13:14.322Z,0
2016-06-15T07:14:13.540Z,0
2016-06-15T07:15:13.652Z,0
2016-06-15T07:16:13.703Z,0
2016-06-15T07:17:13.643Z,0
2016-06-15T07:18:22.665Z,0
2016-06-15T07:19:20.762Z,0
2016-06-15T07:20:13.840Z,0
2016-06-15T07:21:14.315Z,0
2016-06-15T07:22:14.128Z,0
2016-06-15T07:23:13.927Z,0
2016-06-15T07:24:13.977Z,0
2016-06-15T07:25:13.995Z,0
2016-06-15T07:26:14.046Z,0
2016-06-15T07:27:14.111Z,0
2016-06-15T07:28:14.115Z,0
2016-06-15T07:29:14.165Z,0
2016-06-15T07:30:14.214Z,0
2016-06-15T07:31:14.311Z,0
2016-06-15T07:32:14.283Z,0
2016-06-15T07:33:14.442Z,0
2016-06-15T07:34:14.383Z,0
2016-06-15T07:35:14.339Z,0
2016-06-15T07:36:14.686Z,0
2016-06-15T07:37:15.535Z,0
2016-06-15T07:38:14.676Z,0
2016-06-15T07:39:14.585Z,0
2016-06-15T07:40:14.604Z,0
2016-06-15T07:41:14.717Z,0
2016-06-15T07:42:14.736Z,0
2016-06-15T07:43:14.910Z,0
2016-06-15T07:44:15.292Z,0
2016-06-15T07:45:14.839Z,0
2016-06-15T07:46:14.717Z,0
2016-06-15T07:47:15.801Z,0
2016-06-15T07:48:16.226Z,0
2016-06-15T07:49:15.054Z,0
2016-06-15T07:50:15.025Z,0
2016-06-15T07:51:17.078Z,0
2016-06-15T07:52:17.035Z,0
2016-06-15T07:53:15.272Z,0
2016-06-15T07:54:15.197Z,0
2016-06-15T07:55:17.654Z,0
2016-06-15T07:56:15.422Z,0
2016-06-15T07:57:15.316Z,0
2016-06-15T07:58:15.349Z,0
2016-06-15T07:59:15.431Z,0
2016-06-15T08:00:15.466Z,0
2016-06-15T08:01:15.516Z,0
2016-06-15T08:02:15.534Z,0
2016-06-15T08:03:15.584Z,0
2016-06-15T08:04:15.618Z,0
2016-06-15T08:05:15.653Z,0
2016-06-15T08:06:15.735Z,0
2016-06-15T08:07:16.409Z,0
2016-06-15T08:08:15.788Z,0
2016-06-15T08:09:16.353Z,0
2016-06-15T08:10:15.871Z,0
2016-06-15T08:11:15.968Z,0
2016-06-15T08:12:15.939Z,0
2016-06-15T08:13:16.334Z,0
2016-06-15T08:14:16.087Z,0
2016-06-15T08:15:16.402Z,0
2016-06-15T08:16:15.969Z,0
2016-06-15T08:17:16.158Z,0
2016-06-15T08:18:16.286Z,0
2016-06-15T08:19:16.227Z,0
2016-06-15T08:20:16.261Z,0
2016-06-15T08:21:16.249Z,0
2016-06-15T08:22:17.423Z,0
2016-06-15T08:23:18.037Z,0
2016-06-15T08:24:17.040Z,0
2016-06-15T08:25:16.558Z,0
2016-06-15T08:26:16.780Z,0
2016-06-15T08:27:16.408Z,0
2016-06-15T08:28:17.349Z,0
2016-06-15T08:29:16.711Z,0
2016-06-15T08:30:17.105Z,0
2016-06-15T08:31:16.733Z,0
2016-06-15T08:32:16.815Z,0
2016-06-15T08:33:16.817Z,0
2016-06-15T08:34:16.868Z,0
2016-06-15T08:35:16.917Z,0
2016-06-15T08:36:16.936Z,0
2016-06-15T08:37:17.970Z,0
2016-06-15T08:38:17.004Z,0
2016-06-15T08:39:17.336Z,0
2016-06-15T08:40:17.136Z,0
2016-06-15T08:41:17.139Z,0
2016-06-15T08:42:16.798Z,0
2016-06-15T08:43:17.285Z,0
2016-06-15T08:44:17.257Z,0
2016-06-15T08:45:17.308Z,0
2016-06-15T08:46:17.435Z,0
2016-06-15T08:47:17.454Z,0
2016-06-15T08:48:17.456Z,0
2016-06-15T08:49:17.475Z,0
2016-06-15T08:50:17.307Z,0
2016-06-15T08:51:17.559Z,0
2016-06-15T08:52:18.266Z,0
2016-06-15T08:53:17.659Z,0
2016-06-15T08:54:17.710Z,0
2016-06-15T08:55:17.713Z,0
2016-06-15T08:56:17.794Z,0
2016-06-15T08:57:17.859Z,0
2016-06-15T08:58:17.862Z,0
2016-06-15T08:59:17.865Z,0
2016-06-15T09:00:25.150Z,0
2016-06-15T09:01:24.951Z,0
2016-06-15T09:02:18.060Z,0
2016-06-15T09:03:18.110Z,0
2016-06-15T09:04:18.707Z,0
2016-06-15T09:05:18.631Z,0
2016-06-15T09:06:18.634Z,0
2016-06-15T09:07:19.044Z,0
2016-06-15T09:08:18.578Z,0
2016-06-15T09:09:18.894Z,0
2016-06-15T09:10:20.021Z,0
2016-06-15T09:11:18.696Z,0
2016-06-15T09:12:18.622Z,0
2016-06-15T09:13:34.698Z,0
2016-06-15T09:14:19.138Z,0
2016-06-15T09:15:18.639Z,0
2016-06-15T09:16:19.784Z,0
2016-06-15T09:17:18.662Z,0
2016-06-15T09:18:18.759Z,0
2016-06-15T09:19:19.449Z,0
2016-06-15T09:20:18.921Z,0
2016-06-15T09:21:18.831Z,0
2016-06-15T09:22:19.302Z,0
2016-06-15T09:23:18.946Z,0
2016-06-15T09:24:21.245Z,0
2016-06-15T09:25:23.421Z,0
2016-06-15T09:26:21.626Z,0
2016-06-15T09:27:19.161Z,0
2016-06-15T09:28:19.367Z,0
2016-06-15T09:29:18.912Z,0
2016-06-15T09:30:20.055Z,0
2016-06-15T09:31:22.043Z,0
2016-06-15T09:32:19.312Z,0
2016-06-15T09:33:20.862Z,0
2016-06-15T09:34:21.052Z,0
2016-06-15T09:35:21.040Z,0
2016-06-15T09:36:22.090Z,0
2016-06-15T09:37:21.857Z,0
2016-06-15T09:38:20.673Z,0
2016-06-15T09:39:22.692Z,0
2016-06-15T09:40:20.383Z,0
2016-06-15T09:41:21.824Z,0
2016-06-15T09:42:22.920Z,0
2016-06-15T09:43:23.923Z,0
2016-06-15T09:44:22.629Z,0
2016-06-15T09:45:26.915Z,0
2016-06-15T09:46:28.745Z,0
2016-06-15T09:47:29.670Z,0
2016-06-15T09:48:21.220Z,0
2016-06-15T09:49:21.067Z,0
2016-06-15T09:50:21.054Z,0
2016-06-15T09:51:22.870Z,0
2016-06-15T09:52:26.951Z,0
2016-06-15T09:53:25.626Z,0
2016-06-15T09:54:23.191Z,0
2016-06-15T09:55:23.038Z,0
2016-06-15T09:56:22.541Z,0
2016-06-15T09:57:22.779Z,0
2016-06-15T09:58:20.782Z,0
2016-06-15T09:59:20.505Z,0
2016-06-15T10:00:21.350Z,0
2016-06-15T10:01:20.603Z,0
2016-06-15T10:02:20.575Z,0
2016-06-15T10:03:21.000Z,0
2016-06-15T10:04:21.084Z,0
2016-06-15T10:05:21.737Z,0
2016-06-15T10:06:23.217Z,0
2016-06-15T10:07:21.886Z,0
2016-06-15T10:08:21.413Z,0
2016-06-15T10:09:21.256Z,0
2016-06-15T10:10:22.884Z,0
2016-06-15T10:11:26.603Z,0
2016-06-15T10:12:22.433Z,0
2016-06-15T10:13:22.014Z,0
2016-06-15T10:14:21.370Z,0
2016-06-15T10:15:27.113Z,0
2016-06-15T10:16:38.090Z,0
2016-06-15T10:17:26.630Z,0
2016-06-15T10:18:35.794Z,0
2016-06-15T10:19:25.489Z,0
2016-06-15T10:20:22.540Z,0
2016-06-15T10:21:22.764Z,0
2016-06-15T10:22:27.082Z,0
2016-06-15T10:23:26.055Z,0
2016-06-15T10:24:23.669Z,0
2016-06-15T10:25:23.360Z,0
2016-06-15T10:26:22.271Z,0
2016-06-15T10:27:24.960Z,0
2016-06-15T10:28:24.605Z,0
2016-06-15T10:29:23.515Z,0
2016-06-15T10:30:22.549Z,0
2016-06-15T10:31:25.818Z,0
2016-06-15T10:32:28.072Z,0
2016-06-15T10:33:22.856Z,0
2016-06-15T10:34:23.501Z,0
2016-06-15T10:35:26.941Z,0
2016-06-15T10:36:51.975Z,0
2016-06-15T10:37:50.511Z,0
2016-06-15T10:38:53.872Z,0
2016-06-15T10:40:18.270Z,0
2016-06-15T10:41:21.757Z,0
2016-06-15T10:42:33.151Z,0
2016-06-15T10:43:11.169Z,0
2016-06-15T10:43:49.544Z,0
2016-06-15T10:44:49.516Z,0
2016-06-15T10:46:29.601Z,0
2016-06-15T10:47:36.150Z,0
2016-06-15T10:49:19.016Z,0
2016-06-15T10:50:14.879Z,0
2016-06-15T10:51:25.382Z,0
2016-06-15T10:52:55.244Z,0
2016-06-15T10:54:21.125Z,0
2016-06-15T10:55:24.409Z,0
2016-06-15T10:56:02.628Z,0
2016-06-15T10:56:40.647Z,0
2016-06-15T10:57:40.978Z,0
2016-06-15T10:58:40.668Z,0
2016-06-15T10:59:40.766Z,0
2016-06-15T11:00:40.816Z,0
2016-06-15T11:01:40.803Z,0
2016-06-15T11:02:40.853Z,0
2016-06-15T11:03:41.184Z,0
2016-06-15T11:04:41.094Z,0
2016-06-15T11:05:40.987Z,0
2016-06-15T11:06:42.913Z,0
2016-06-15T11:07:42.634Z,0
2016-06-15T11:08:41.199Z,0
2016-06-15T11:09:41.282Z,0
2016-06-15T11:10:41.237Z,0
2016-06-15T11:11:41.866Z,0
2016-06-15T11:12:41.603Z,0
2016-06-15T11:13:41.778Z,0
2016-06-15T11:14:41.421Z,0
2016-06-15T11:15:41.471Z,0
2016-06-15T11:16:41.537Z,0
2016-06-15T11:17:41.399Z,0
2016-06-15T11:18:41.591Z,0
2016-06-15T11:19:41.702Z,0
2016-06-15T11:20:41.800Z,0
2016-06-15T11:21:41.756Z,0
2016-06-15T11:22:41.711Z,0
2016-06-15T11:23:42.636Z,0
2016-06-15T11:24:41.906Z,0
2016-06-15T11:25:41.923Z,0
2016-06-15T11:26:41.818Z,0
2016-06-15T11:27:42.040Z,0
2016-06-15T11:28:42.089Z,0
2016-06-15T11:29:42.139Z,0
2016-06-15T11:30:42.158Z,0
2016-06-15T11:31:42.255Z,0
2016-06-15T11:32:42.320Z,0
2016-06-15T11:33:42.401Z,0
2016-06-15T11:34:42.498Z,0
2016-06-15T11:35:47.033Z,0
2016-06-15T11:36:42.630Z,0
2016-06-15T11:37:42.382Z,0
2016-06-15T11:38:42.635Z,0
2016-06-15T11:39:42.638Z,0
2016-06-15T11:40:42.485Z,0
2016-06-15T11:41:44.333Z,0
2016-06-15T11:42:42.726Z,0
2016-06-15T11:43:42.776Z,0
2016-06-15T11:44:42.920Z,0
2016-06-15T11:45:42.829Z,0
2016-06-15T11:46:42.974Z,0
2016-06-15T11:47:43.038Z,0
2016-06-15T11:48:43.119Z,0
2016-06-15T11:49:43.014Z,0
2016-06-15T11:50:43.125Z,0
2016-06-15T11:51:45.098Z,0
2016-06-15T11:52:44.117Z,0
2016-06-15T11:53:43.354Z,0
2016-06-15T11:54:43.310Z,0
2016-06-15T11:55:43.437Z,0
2016-06-15T11:56:43.504Z,0
2016-06-15T11:57:43.507Z,0
2016-06-15T11:58:43.525Z,0
2016-06-15T11:59:43.686Z,0
2016-06-15T12:00:44.078Z,0
2016-06-15T12:01:43.645Z,0
2016-06-15T12:02:43.710Z,0
2016-06-15T12:03:43.776Z,0
2016-06-15T12:04:43.826Z,0
2016-06-15T12:05:43.906Z,0
2016-06-15T12:06:43.738Z,0
2016-06-15T12:07:45.162Z,0
2016-06-15T12:08:44.494Z,0
2016-06-15T12:09:44.075Z,0
2016-06-15T12:10:43.922Z,0
2016-06-15T12:11:43.925Z,0
2016-06-15T12:12:44.178Z,0
2016-06-15T12:13:44.649Z,0
2016-06-15T12:14:46.185Z,0
2016-06-15T12:15:44.453Z,0
2016-06-15T12:16:50.237Z,0
2016-06-15T12:17:44.693Z,0
2016-06-15T12:18:44.525Z,0
2016-06-15T12:19:44.590Z,0
2016-06-15T12:20:44.484Z,0
2016-06-15T12:21:44.549Z,0
2016-06-15T12:22:45.098Z,0
2016-06-15T12:23:46.149Z,0
2016-06-15T12:24:46.496Z,0
2016-06-15T12:25:44.905Z,0
2016-06-15T12:26:46.580Z,0
2016-06-15T12:27:45.146Z,0
2016-06-15T12:28:45.430Z,0
2016-06-15T12:29:45.262Z,0
2016-06-15T12:30:45.140Z,0
2016-06-15T12:31:49.284Z,0
2016-06-15T12:32:45.332Z,0
2016-06-15T12:33:45.382Z,0
2016-06-15T12:34:45.371Z,0
2016-06-15T12:35:46.780Z,0
2016-06-15T12:36:45.798Z,0
2016-06-15T12:37:45.739Z,0
2016-06-15T12:38:45.758Z,0
2016-06-15T12:39:45.620Z,0
2016-06-15T12:40:46.499Z,0
2016-06-15T12:41:45.767Z,0
2016-06-15T12:42:45.863Z,0
2016-06-15T12:43:45.851Z,0
2016-06-15T12:44:45.870Z,0
2016-06-15T12:45:45.889Z,0
2016-06-15T12:46:45.986Z,0
2016-06-15T12:47:46.051Z,0
2016-06-15T12:48:47.741Z,0
2016-06-15T12:49:47.089Z,0
2016-06-15T12:50:46.154Z,0
2016-06-15T12:51:46.376Z,0
2016-06-15T12:52:46.473Z,0
2016-06-15T12:53:46.366Z,0
2016-06-15T12:54:46.730Z,0
2016-06-15T12:55:46.435Z,0
2016-06-15T12:56:46.531Z,0
2016-06-15T12:57:46.566Z,0
2016-06-15T12:58:46.632Z,0
2016-06-15T12:59:46.604Z,0
2016-06-15T13:00:46.982Z,0
2016-06-15T13:32:32.799Z,0
2016-06-15T13:33:32.599Z,0
2016-06-15T13:34:32.618Z,1
2016-06-15T13:35:32.620Z,1
2016-06-15T13:36:32.546Z,1
2016-06-15T13:37:33.252Z,1
2016-06-15T13:38:32.833Z,1
2016-06-15T13:39:33.038Z,1
2016-06-15T13:40:32.730Z,1
2016-06-15T13:41:32.905Z,1
2016-06-15T13:42:33.095Z,1
2016-06-15T13:43:33.083Z,4
2016-06-15T13:44:33.087Z,14
2016-06-15T13:45:33.323Z,16
2016-06-15T13:46:33.217Z,21
2016-06-15T13:47:33.236Z,26
2016-06-15T13:48:33.239Z,24
2016-06-15T13:49:33.305Z,28
2016-06-15T13:50:33.355Z,29
2016-06-15T13:51:33.497Z,37
2016-06-15T13:52:34.658Z,43
2016-06-15T13:53:34.348Z,37
2016-06-15T13:54:33.632Z,36
2016-06-15T13:55:33.745Z,27
2016-06-15T13:56:33.670Z,20
2016-06-15T13:57:33.719Z,15
2016-06-15T13:58:33.816Z,11
2016-06-15T13:59:33.882Z,8
2016-06-15T14:00:33.869Z,6
2016-06-15T14:01:33.950Z,5
2016-06-15T14:02:34.079Z,4
2016-06-15T14:03:34.112Z,3
2016-06-15T14:04:34.288Z,2
2016-06-15T14:05:34.166Z,2
2016-06-15T14:06:34.232Z,2
2016-06-15T14:07:36.079Z,2
2016-06-15T14:08:35.691Z,2
2016-06-15T14:09:34.397Z,1
2016-06-15T14:10:34.509Z,1
2016-06-15T14:11:34.575Z,1
2016-06-15T14:12:34.532Z,1
2016-06-15T14:13:34.643Z,1
2016-06-15T14:14:34.710Z,1
2016-06-15T14:15:34.541Z,1
2016-06-15T14:16:34.794Z,1
2016-06-15T14:17:35.422Z,1
2016-06-15T14:18:34.847Z,1
2016-06-15T14:19:34.944Z,1
2016-06-15T14:20:34.994Z,1
2016-06-15T14:21:35.090Z,1
2016-06-15T14:22:35.109Z,1
2016-06-15T14:23:35.643Z,1
2016-06-15T14:24:35.240Z,1
2016-06-15T14:25:35.291Z,1
2016-06-15T14:26:35.387Z,1
2016-06-15T14:27:35.436Z,1
2016-06-15T14:28:35.487Z,1
2016-06-15T14:29:35.272Z,1
2016-06-15T14:30:35.367Z,1
2016-06-15T14:31:35.637Z,1
2016-06-15T14:32:35.701Z,1
2016-06-15T14:33:35.705Z,1
2016-06-15T14:34:35.771Z,1
2016-06-15T14:35:35.961Z,1
2016-06-15T14:36:35.855Z,1
2016-06-15T14:37:35.921Z,1
2016-06-15T14:38:36.690Z,1
2016-06-15T14:39:36.067Z,1
2016-06-15T14:40:36.149Z,1
2016-06-15T14:41:36.183Z,1
2016-06-15T14:42:36.357Z,1
2016-06-15T14:43:36.283Z,1
2016-06-15T14:44:36.317Z,1
2016-06-15T14:45:36.430Z,1
2016-06-15T14:46:36.526Z,1
2016-06-15T14:47:36.545Z,1
2016-06-15T14:48:36.580Z,1
2016-06-15T14:49:37.629Z,1
2016-06-15T14:50:37.570Z,1
2016-06-15T14:51:37.776Z,1
2016-06-15T14:52:37.748Z,1
2016-06-15T14:53:38.079Z,1
2016-06-15T14:54:37.754Z,1
2016-06-15T14:55:37.898Z,1
2016-06-15T14:56:38.026Z,1
2016-06-15T14:57:37.122Z,1
2016-06-15T14:58:38.579Z,1
2016-06-15T14:59:38.145Z,1
2016-06-15T15:00:37.819Z,1
2016-06-15T15:01:37.776Z,1
2016-06-15T15:02:38.373Z,1
2016-06-15T15:03:38.438Z,1
2016-06-15T15:04:38.535Z,1
2016-06-15T15:05:37.757Z,1
2016-06-15T15:06:37.494Z,1
2016-06-15T15:07:37.529Z,1
2016-06-15T15:08:37.937Z,1
2016-06-15T15:09:37.801Z,1
2016-06-15T15:10:37.882Z,1
2016-06-15T15:11:38.041Z,1
2016-06-15T15:12:37.997Z,1
2016-06-15T15:13:38.063Z,1
2016-06-15T15:14:38.222Z,1
2016-06-15T15:15:38.100Z,1
2016-06-15T15:16:38.228Z,1
2016-06-15T15:17:38.278Z,1
2016-06-15T15:18:38.376Z,1
2016-06-15T15:19:38.426Z,1
2016-06-15T15:20:38.475Z,1